Date,TemperatureHighF,TemperatureAvgF,TemperatureLowF,DewpointHighF,DewpointAvgF,DewpointLowF,HumidityHigh,HumidityAvg,HumidityLow,PressureMaxIn,PressureMinIn,WindSpeedMaxMPH,WindSpeedAvgMPH,GustSpeedMaxMPH,PrecipitationSumIn
2013-3-21,55.4,44.8,38.2,40.5,36.4,33.8,87,73,53,30.30,30.25,5,1,5,0.08
2013-3-22,49.7,40.8,33.1,37.8,32.1,27.1,91,73,48,30.49,30.36,4,0,4,0.03
2013-3-23,54.7,41.7,32.9,37.8,30.5,25.5,86,67,40,30.51,30.41,3,0,3,0.00
2013-3-24,53.8,42.1,31.3,36.7,31.4,26.6,85,68,41,30.41,30.23,3,0,3,0.00
2013-3-25,60.8,47.3,33.1,38.5,31.9,26.3,79,58,31,30.24,30.05,3,0,3,0.00
2013-3-26,60.8,51.5,45.0,44.0,38.6,35.1,76,62,44,30.14,30.07,4,0,4,0.00
2013-3-27,58.0,49.6,43.2,46.8,41.7,35.9,88,74,57,30.11,30.05,2,0,2,0.02
2013-3-28,63.4,52.0,41.9,51.6,44.9,38.5,92,78,53,30.26,30.10,3,0,3,0.03
2013-3-29,64.3,52.7,43.4,49.4,44.3,39.8,89,74,51,30.36,30.26,3,0,3,0.01
2013-3-30,62.5,51.8,41.6,49.2,43.9,37.6,91,76,57,30.38,30.19,5,1,5,0.00
2013-3-31,66.4,54.2,42.3,48.4,42.6,37.6,86,66,47,30.19,30.03,5,0,5,0.00
2013-4-1,62.5,53.3,46.1,50.6,46.2,39.8,88,77,61,30.26,30.08,7,1,7,0.00
2013-4-2,61.4,53.1,49.0,49.2,45.4,42.8,82,75,63,30.31,30.26,4,0,4,0.00
2013-4-3,63.2,54.1,45.0,49.7,45.1,41.7,88,73,52,30.31,30.07,4,0,4,0.00
2013-4-4,55.4,52.1,49.3,53.0,48.2,43.0,94,87,78,30.07,29.75,8,0,8,0.45
2013-4-5,57.6,52.7,48.6,51.1,48.8,45.9,94,87,75,29.98,29.83,8,2,8,0.79
2013-4-6,54.7,48.7,45.9,47.9,45.0,42.3,94,87,75,30.03,29.80,9,1,9,0.49
2013-4-7,47.5,44.2,40.5,45.1,41.8,38.3,94,91,88,30.00,29.63,4,0,4,0.95
2013-4-8,60.8,46.7,42.8,49.8,42.9,40.5,93,87,59,30.38,30.00,4,0,4,0.04
2013-4-9,56.5,49.2,43.4,45.2,42.0,40.0,88,77,61,30.46,30.31,2,0,2,0.00
2013-4-10,63.4,53.0,48.8,54.1,46.6,42.1,92,79,67,30.37,30.05,8,1,8,0.25
2013-4-11,55.6,48.7,45.0,44.4,40.4,36.5,90,74,50,30.41,30.31,5,0,5,0.07
2013-4-12,47.5,44.4,40.5,43.9,39.3,34.7,93,83,70,30.31,29.78,6,1,6,0.17
2013-4-13,54.5,43.4,37.8,44.8,38.9,35.1,92,85,66,30.11,29.86,7,1,7,0.54
2013-4-14,58.7,46.0,38.0,45.0,38.2,32.7,93,76,46,30.12,30.03,3,0,3,0.07
2013-4-15,56.2,47.1,38.2,43.3,39.0,34.3,90,74,52,30.30,30.06,5,1,5,0.00
2013-4-16,58.7,46.9,36.7,44.9,37.6,33.6,91,72,46,30.51,30.30,5,0,5,0.00
2013-4-17,65.0,49.3,37.6,43.9,38.6,33.4,87,69,39,30.57,30.50,6,1,6,0.00
2013-4-18,53.1,48.6,44.1,47.3,42.9,37.5,92,81,71,30.57,30.31,7,1,7,0.14
2013-4-19,55.1,51.2,48.6,52.5,48.7,46.5,93,91,87,30.31,30.17,8,1,8,0.44
2013-4-20,59.6,50.8,47.0,50.8,46.5,44.2,93,85,66,30.39,30.30,4,0,4,0.20
2013-4-21,54.4,47.7,42.8,46.3,42.7,36.5,93,83,64,30.48,30.34,4,0,4,0.07
2013-4-22,58.5,45.7,36.9,43.3,34.9,25.7,91,69,31,30.64,30.48,5,1,5,0.00
2013-4-23,63.5,42.7,35.1,41.0,32.6,28.6,85,70,27,30.54,30.36,2,0,2,0.00
2013-4-24,69.3,48.6,39.6,46.5,36.8,34.3,84,67,31,30.44,30.19,4,0,4,0.00
2013-4-25,73.8,56.2,41.4,46.4,40.9,34.4,78,59,31,30.26,30.16,2,0,2,0.00
2013-4-26,67.7,53.0,44.3,51.4,44.7,40.1,91,74,53,30.37,30.26,3,0,3,0.00
2013-4-27,58.0,54.0,52.2,48.1,45.2,40.6,82,72,60,30.33,30.26,6,1,6,0.00
2013-4-28,63.9,52.7,47.3,51.0,45.0,40.5,89,76,53,30.33,30.05,7,1,7,0.01
2013-4-29,61.0,50.3,44.3,46.6,40.3,35.2,92,70,46,30.28,30.02,5,1,5,0.13
2013-4-30,56.3,46.7,37.4,41.3,35.2,31.5,87,66,43,30.56,30.28,5,0,5,0.07
2013-5-1,62.8,44.2,35.8,46.1,34.4,30.4,87,71,37,30.69,30.56,3,0,3,0.00
2013-5-2,65.9,53.4,41.0,43.8,39.6,34.2,81,60,45,30.66,30.48,2,0,2,0.00
2013-5-3,52.2,51.9,51.7,38.8,38.5,38.3,61,60,59,30.50,30.49,1,0,1,0.00
2013-5-17,67.3,60.7,53.6,52.2,49.3,46.2,85,67,48,30.18,30.09,5,1,5,0.00
2013-5-18,66.6,57.3,51.5,50.5,47.1,45.5,84,69,49,30.39,30.18,4,0,4,0.00
2013-5-19,64.8,57.5,50.0,51.6,48.0,43.7,80,71,55,30.52,30.39,3,0,3,0.00
2013-5-20,71.5,56.1,44.5,55.3,46.8,41.0,90,72,42,30.47,30.02,3,0,3,0.00
2013-5-21,59.4,51.1,46.8,49.7,46.2,44.1,91,84,64,30.03,29.90,4,0,4,0.48
2013-5-22,55.8,49.9,46.8,48.5,45.0,42.6,91,83,71,30.05,29.96,4,0,4,0.04
2013-5-23,63.0,51.1,45.9,50.4,44.6,42.2,91,79,50,30.13,30.04,7,1,7,0.06
2013-5-24,67.0,54.5,45.4,48.8,45.5,42.2,91,74,44,30.16,30.08,4,1,4,0.01
2013-5-25,67.7,57.3,50.8,48.6,47.0,43.4,84,70,45,30.16,30.08,5,1,5,0.00
2013-5-26,68.8,57.1,50.0,55.0,50.3,46.0,89,79,60,30.10,30.06,6,1,6,0.08
2013-5-27,61.6,56.7,51.8,56.5,52.4,47.7,90,86,80,30.08,29.82,3,0,3,0.31
2013-5-28,65.5,58.6,52.6,54.0,50.0,46.9,89,73,60,30.00,29.88,6,1,6,0.01
2013-5-29,63.0,54.9,50.0,53.1,48.6,45.9,92,80,65,30.08,29.80,5,0,5,0.15
2013-5-30,66.2,56.2,50.0,49.5,47.1,44.6,85,72,52,30.36,30.08,7,1,7,0.00
2013-5-31,67.9,58.3,50.4,53.8,46.2,40.1,86,66,41,30.45,30.36,5,1,5,0.00
2013-6-1,74.2,61.1,50.8,51.8,47.5,44.1,80,63,38,30.37,30.18,4,0,4,0.00
2013-6-2,71.1,63.4,53.6,52.6,49.9,45.9,82,62,48,30.21,30.16,5,0,5,0.01
2013-6-3,72.7,60.1,51.5,54.6,50.7,47.3,89,72,49,30.24,30.17,4,0,4,0.00
2013-6-4,77.0,63.5,48.4,55.3,49.9,44.6,90,64,41,30.24,30.14,4,1,4,0.00
2013-6-5,76.9,64.0,51.3,58.4,52.2,44.6,83,66,48,30.21,30.15,4,0,4,0.00
2013-6-6,80.3,65.4,50.8,61.1,49.7,43.9,89,60,33,30.18,30.13,3,0,3,0.00
2013-6-7,69.8,61.9,55.3,55.7,49.7,44.5,77,65,48,30.27,30.14,5,0,5,0.00
2013-6-8,69.3,60.3,54.2,51.2,48.6,46.1,76,66,51,30.31,30.22,3,0,3,0.00
2013-6-9,67.5,58.4,51.7,50.9,47.3,44.3,79,67,48,30.23,30.14,4,0,4,0.00
2013-6-10,70.6,59.7,47.0,51.5,46.9,41.1,83,64,44,30.16,30.00,3,0,3,0.00
2013-6-11,68.6,57.9,53.1,55.7,47.7,45.2,83,70,49,30.22,30.05,6,1,6,0.31
2013-6-12,72.4,60.3,52.2,50.4,47.9,45.0,83,65,40,30.27,30.21,6,1,6,0.00
2013-6-13,69.5,59.9,52.6,51.8,49.0,46.6,83,68,47,30.34,30.26,4,0,4,0.00
2013-6-14,68.6,58.8,54.4,51.0,48.4,47.1,80,69,50,30.35,30.17,4,1,4,0.00
2013-6-15,72.2,61.7,49.0,55.4,50.5,44.9,89,68,45,30.18,30.04,3,0,3,0.00
2013-6-16,79.2,63.9,52.7,57.9,52.9,48.3,88,69,47,30.21,30.11,5,0,5,0.00
2013-6-17,79.2,66.3,55.6,56.3,51.8,46.8,82,62,34,30.21,30.01,6,1,6,0.01
2013-6-18,77.8,65.2,54.5,57.7,50.0,44.1,88,61,32,30.10,29.99,5,1,5,0.00
2013-6-19,72.2,61.5,54.7,54.1,50.6,48.3,82,68,49,30.13,30.03,6,0,6,0.00
2013-6-20,63.7,57.2,53.3,54.9,51.5,48.8,92,82,70,30.23,30.06,4,0,4,0.63
2013-6-21,70.9,60.6,53.1,57.1,51.8,48.5,93,75,49,30.28,30.22,3,0,3,0.03
2013-6-22,79.0,65.8,50.6,61.6,51.9,47.0,91,64,39,30.24,29.96,5,0,5,0.00
2013-6-23,72.7,64.5,58.3,59.7,55.8,50.3,87,74,63,29.97,29.72,2,0,2,0.15
2013-6-24,70.9,63.2,56.7,58.4,55.3,52.8,93,76,56,29.82,29.69,6,1,6,0.11
2013-6-25,77.4,63.3,56.9,59.9,55.8,52.7,93,78,45,29.97,29.78,8,0,8,0.52
2013-6-26,76.1,64.1,56.9,62.3,57.2,53.9,93,79,58,30.19,29.96,6,0,6,0.07
2013-6-27,74.3,65.4,59.9,65.8,59.9,54.6,91,83,70,30.31,30.16,3,0,3,0.12
2013-6-28,89.5,72.0,58.5,66.9,60.8,55.6,92,70,42,30.31,30.16,5,0,5,0.00
2013-6-29,86.0,72.3,62.6,66.0,60.3,55.9,85,68,49,30.22,30.11,3,0,3,0.00
2013-6-30,89.6,74.2,57.6,66.4,60.2,52.7,85,63,45,30.13,29.97,4,1,4,0.00
2013-7-1,87.1,74.1,61.6,65.3,60.3,56.1,84,63,46,30.14,30.02,3,0,3,0.00
2013-7-2,81.5,70.5,59.9,62.0,56.0,50.5,85,62,38,30.23,30.14,4,1,4,0.00
2013-7-3,76.1,67.0,60.5,57.4,51.3,47.4,67,58,43,30.27,30.16,3,0,3,0.00
2013-7-4,74.2,64.6,57.8,55.9,52.5,49.6,78,66,49,30.25,30.14,6,0,6,0.00
2013-7-5,80.1,66.2,53.5,57.8,53.9,48.8,88,66,44,30.16,30.07,5,0,5,0.00
2013-7-6,78.3,66.2,54.0,60.5,53.5,50.0,89,66,40,30.10,29.98,4,0,4,0.00
2013-7-7,79.0,66.2,55.6,61.3,56.1,50.1,87,71,52,30.08,29.99,4,0,4,0.00
2013-7-8,79.6,66.3,56.9,59.8,55.1,52.0,85,69,47,30.22,30.07,4,1,4,0.00
2013-7-9,81.2,68.2,56.0,59.7,54.9,50.6,89,65,43,30.24,30.11,4,0,4,0.00
2013-7-10,73.4,63.9,56.2,58.1,53.2,49.2,85,69,54,30.19,30.07,5,1,5,0.00
2013-7-11,74.5,61.7,56.7,53.4,49.2,46.0,76,64,46,30.21,30.11,3,0,3,0.00
2013-7-12,69.3,60.0,51.8,54.4,49.6,45.1,80,69,56,30.22,30.13,4,0,4,0.00
2013-7-13,76.5,63.0,48.8,57.2,48.7,43.8,86,62,38,30.31,30.22,4,0,4,0.00
2013-7-14,81.4,65.5,49.5,57.7,48.3,44.4,86,57,30,30.25,30.11,4,1,4,0.00
2013-7-15,77.6,67.4,52.6,55.3,49.2,44.3,81,54,34,30.17,30.01,5,1,5,0.00
2013-7-16,83.5,70.8,55.1,56.5,50.4,44.2,73,50,34,30.02,29.92,5,1,5,0.00
2013-7-17,74.0,66.8,59.4,57.3,55.1,51.6,80,67,54,30.31,29.99,5,1,5,0.00
2013-7-18,78.1,66.0,57.2,58.2,55.0,51.1,85,69,49,30.34,30.24,3,0,3,0.00
2013-7-19,79.4,65.3,53.1,60.6,55.4,49.3,89,72,51,30.29,30.16,3,0,3,0.00
2013-7-20,76.5,63.5,54.4,60.5,55.3,50.6,91,76,54,30.21,30.08,3,0,3,0.00
2013-7-21,77.8,64.4,54.2,60.8,55.8,50.4,91,75,54,30.10,30.01,4,0,4,0.00
2013-7-22,79.9,66.8,56.7,60.1,56.3,52.4,90,71,45,30.19,30.06,4,0,4,0.00
2013-7-23,82.1,66.8,54.9,60.9,53.6,47.6,91,66,30,30.19,30.09,3,0,3,0.00
2013-7-24,83.3,68.7,54.2,57.4,52.1,45.1,88,59,28,30.18,30.11,3,0,3,0.00
2013-7-25,83.5,68.1,53.1,60.2,52.8,48.1,88,61,35,30.22,30.15,3,0,3,0.00
2013-7-26,83.3,68.5,52.9,62.7,51.2,46.1,86,57,30,30.27,30.19,4,0,4,0.00
2013-7-27,79.6,66.0,53.1,56.6,50.9,46.3,85,60,35,30.28,30.11,4,0,4,0.00
2013-7-28,70.4,61.5,54.9,55.6,52.4,48.4,87,73,58,30.15,30.07,5,1,5,0.00
2013-7-29,77.6,65.4,55.6,56.5,53.3,49.9,83,66,46,30.13,30.06,4,0,4,0.00
2013-7-30,80.1,65.7,56.2,59.9,54.6,50.6,86,69,45,30.26,30.12,4,0,4,0.00
2013-7-31,73.8,62.9,54.7,60.8,56.0,50.2,90,79,62,30.25,30.10,3,0,3,0.00
2013-8-1,72.4,62.8,56.3,57.3,54.7,52.4,88,76,57,30.18,30.14,5,1,5,0.00
2013-8-2,62.3,60.4,59.2,58.3,55.2,53.8,90,83,79,30.24,30.16,5,0,5,0.15
2013-8-3,74.5,63.1,58.5,60.5,57.2,53.8,92,82,58,30.24,30.17,4,0,4,0.00
2013-8-4,78.5,61.9,53.8,62.0,55.0,50.7,92,79,52,30.18,30.06,3,0,3,0.00
2013-8-5,84.4,68.9,55.3,60.8,56.8,51.8,89,68,42,30.13,30.03,2,0,2,0.00
2013-8-6,85.1,64.9,53.8,62.5,52.9,49.7,88,67,35,30.12,30.03,2,0,2,0.00
2013-8-7,85.3,65.5,53.5,60.0,53.6,49.3,88,68,34,30.13,30.06,4,0,4,0.00
2013-8-8,82.4,65.4,58.0,61.0,55.8,53.0,88,73,46,30.15,30.05,2,0,2,0.00
2013-8-9,81.5,68.0,55.6,58.6,55.4,51.8,88,66,44,30.07,29.95,3,0,3,0.00
2013-8-10,79.9,66.2,59.0,63.4,58.8,55.8,90,78,55,30.12,30.01,2,0,2,0.16
2013-8-11,78.3,66.4,58.0,58.8,55.3,53.1,85,69,48,30.18,30.10,4,0,4,0.00
2013-8-12,79.9,65.2,58.3,57.1,54.7,53.0,83,71,44,30.18,30.12,2,0,2,0.00
2013-8-13,81.5,66.6,56.9,61.1,55.3,51.6,86,69,42,30.21,30.04,3,0,3,0.00
2013-8-14,80.8,66.8,54.9,61.0,57.0,50.5,86,73,44,30.07,30.02,2,0,2,0.01
2013-8-15,71.5,64.4,59.4,65.0,60.0,56.5,90,86,77,30.10,30.03,1,0,1,0.05
2013-8-16,69.1,60.6,57.6,64.2,58.2,54.9,93,91,84,30.11,30.08,1,0,1,0.00
2013-8-24,74.0,65.7,59.0,56.3,53.6,51.5,77,66,52,30.03,29.97,4,0,4,0.00
2013-8-25,73.4,63.1,52.9,56.6,53.1,48.8,88,71,51,30.05,29.97,3,0,3,0.00
2013-8-26,79.2,65.9,59.9,60.7,55.8,51.2,81,71,41,30.07,29.96,5,0,5,0.03
2013-8-27,81.0,68.3,61.2,61.1,57.2,52.5,83,69,48,30.07,29.90,4,0,4,0.00
2013-8-28,80.8,68.9,59.6,64.3,59.4,54.5,92,73,51,30.01,29.94,3,0,3,0.17
2013-8-29,75.2,67.0,63.0,68.4,62.5,57.3,92,86,71,30.13,29.96,4,0,4,0.43
2013-8-30,80.1,65.2,60.3,61.8,58.5,53.8,90,80,42,30.26,30.13,5,1,5,0.00
2013-8-31,75.2,67.2,52.9,59.3,56.2,49.8,89,69,56,30.19,29.95,4,1,4,0.00
2013-9-1,80.8,60.1,55.4,62.6,55.4,52.2,92,85,50,30.00,29.92,2,0,2,0.00
2013-9-2,83.7,70.3,58.0,61.7,57.0,53.7,87,65,44,30.04,29.96,4,0,4,0.00
2013-9-3,73.8,66.1,60.8,63.1,59.9,54.4,92,81,65,30.13,30.05,2,0,2,0.15
2013-9-4,71.3,61.5,56.9,61.8,57.2,53.6,92,86,69,30.16,30.11,1,0,1,0.00
2013-9-5,61.4,59.5,57.8,58.2,57.1,54.5,93,92,86,30.16,30.10,1,0,1,0.08
2013-9-10,75.1,69.8,61.2,62.7,59.9,55.7,82,71,63,30.08,30.00,3,0,3,0.00
2013-9-11,86.6,69.3,55.4,64.9,58.4,52.3,91,70,45,30.05,29.97,3,0,3,0.00
2013-9-12,79.6,66.2,58.1,65.7,58.4,54.1,92,77,56,30.11,30.01,3,0,3,0.00
2013-9-13,67.5,62.8,57.2,61.2,58.6,53.3,93,86,78,30.08,29.98,3,0,3,0.01
2013-9-14,68.8,63.1,57.4,60.5,58.0,54.2,91,84,74,29.99,29.84,3,0,3,0.00
2013-9-15,66.2,60.6,56.2,62.0,57.9,53.6,94,91,83,29.92,29.82,2,0,2,0.22
2013-9-16,70.0,60.8,58.0,60.4,57.2,53.8,92,88,69,30.03,29.90,4,0,4,0.04
2013-9-17,63.7,59.2,53.6,55.5,52.9,49.9,88,80,68,30.04,29.97,2,0,2,0.00
2013-9-18,70.2,56.8,52.2,55.3,50.4,47.6,93,80,51,30.18,30.04,3,0,3,0.00
2013-9-19,77.2,60.2,47.3,54.6,49.6,44.4,91,71,36,30.15,29.86,3,0,3,0.00
2013-9-20,78.8,61.6,51.1,58.3,52.4,46.7,90,73,44,29.86,29.69,6,0,6,0.11
2013-9-21,70.6,61.3,55.6,59.0,54.0,51.8,91,78,58,29.83,29.75,3,0,3,0.00
2013-9-22,62.3,58.4,55.8,56.9,53.0,50.1,92,82,66,29.83,29.68,6,1,6,0.27
2013-9-23,63.2,56.8,53.1,55.3,51.8,48.0,92,84,73,30.07,29.83,5,1,5,0.33
2013-9-24,67.3,53.5,50.8,53.9,48.9,47.2,91,85,55,30.06,29.94,3,0,3,0.05
2013-9-25,60.8,51.5,47.5,50.4,47.3,43.6,92,86,64,30.13,29.96,2,0,2,0.05
2013-9-26,62.6,50.7,43.2,50.2,45.6,40.8,94,83,63,30.23,30.13,3,0,3,0.00
2013-9-27,58.3,53.1,48.8,52.4,48.7,44.7,89,85,79,30.22,29.96,3,0,3,0.09
2013-9-28,60.1,55.7,52.2,58.1,53.3,49.9,95,92,87,29.95,29.45,3,1,3,1.51
2013-9-29,54.9,53.4,51.8,52.0,50.3,48.8,93,89,83,29.66,29.27,4,1,4,0.66
2013-9-30,58.7,52.4,49.5,51.3,47.8,45.2,91,85,72,30.02,29.52,5,1,5,0.17
2013-10-1,61.7,52.0,47.5,51.5,46.9,44.2,93,83,64,30.21,30.01,5,1,5,0.15
2013-10-2,56.5,51.5,48.6,50.8,47.5,45.9,92,86,76,30.28,30.16,5,0,5,0.32
2013-10-3,60.3,52.1,47.2,48.8,46.6,42.8,92,82,61,30.54,30.28,3,0,3,0.00